Time;durP1;ratioP1;P1;durP2;ratioP2;P2;SDS_P1;SDS_P2;PMS_P1;PMS_P2;Temp;Humidity;BMP_temperature;BMP_pressure;BME280_temperature;BME280_humidity;BME280_pressure;Samples;Min_cycle;Max_cycle;Signal;HPM_P1;HPM_P2
2022/02/22 00:00:27;;;;;;;25.80;4.32;;;;;;;;;;4958570;28;20038;-62
2022/02/22 00:02:57;;;;;;;27.02;3.40;;;;;;;;;;4937809;28;20156;-63
2022/02/22 00:05:25;;;;;;;33.03;3.55;;;;;;;;;;4961380;28;20051;-65
2022/02/22 00:07:53;;;;;;;31.65;4.43;;;;;;;;;;4961190;28;20124;-62
2022/02/22 00:10:24;;;;;;;27.40;3.53;;;;;;;;;;4947821;28;20129;-60
2022/02/22 00:12:49;;;;;;;52.60;4.63;;;;;;;;;;4957174;28;20121;-62
2022/02/22 00:15:15;;;;;;;24.40;3.17;;;;;;;;;;4963107;28;21971;-63
2022/02/22 00:17:41;;;;;;;26.88;3.63;;;;;;;;;;4957532;28;20034;-60
2022/02/22 00:20:10;;;;;;;30.38;3.63;;;;;;;;;;4959486;28;20042;-64
2022/02/22 00:22:40;;;;;;;27.92;4.22;;;;;;;;;;4946314;28;20026;-64
2022/02/22 00:25:06;;;;;;;33.95;4.57;;;;;;;;;;4959326;28;20455;-62
2022/02/22 00:27:32;;;;;;;24.80;3.17;;;;;;;;;;4974420;28;20113;-61
2022/02/22 00:29:57;;;;;;;44.55;5.57;;;;;;;;;;4960344;28;20031;-62
2022/02/22 00:32:23;;;;;;;35.95;5.07;;;;;;;;;;4947228;28;20030;-62
2022/02/22 00:34:49;;;;;;;24.48;3.10;;;;;;;;;;4964616;28;20062;-62
2022/02/22 00:37:17;;;;;;;23.27;3.22;;;;;;;;;;4942534;28;20023;-61
2022/02/22 00:39:43;;;;;;;23.98;3.80;;;;;;;;;;4974651;28;20627;-61
2022/02/22 00:42:11;;;;;;;30.75;3.83;;;;;;;;;;4962155;28;20042;-61
2022/02/22 00:44:36;;;;;;;19.60;4.03;;;;;;;;;;4960666;28;20031;-61
2022/02/22 00:47:07;;;;;;;26.08;3.53;;;;;;;;;;4938749;28;20954;-62
2022/02/22 00:49:32;;;;;;;19.27;3.28;;;;;;;;;;4960011;28;20065;-62
2022/02/22 00:52:01;;;;;;;23.65;3.75;;;;;;;;;;4957509;28;21940;-60
2022/02/22 00:54:26;;;;;;;32.22;3.72;;;;;;;;;;4944528;28;20513;-62
2022/02/22 00:56:52;;;;;;;17.50;3.63;;;;;;;;;;4942181;28;20026;-61
2022/02/22 00:59:18;;;;;;;31.35;3.35;;;;;;;;;;4944507;28;20052;-62
2022/02/22 01:01:43;;;;;;;28.35;3.90;;;;;;;;;;4947008;28;20041;-62
2022/02/22 01:04:12;;;;;;;37.55;3.47;;;;;;;;;;4941761;28;20088;-63
2022/02/22 01:06:37;;;;;;;27.70;3.60;;;;;;;;;;4943205;28;20022;-62
2022/02/22 01:09:06;;;;;;;38.03;3.75;;;;;;;;;;4959667;28;20544;-62
2022/02/22 01:11:32;;;;;;;24.65;3.90;;;;;;;;;;4957129;28;20018;-60
2022/02/22 01:13:58;;;;;;;20.00;3.92;;;;;;;;;;4948944;28;20061;-62
2022/02/22 01:16:23;;;;;;;17.77;3.10;;;;;;;;;;4943291;28;20193;-61
2022/02/22 01:18:51;;;;;;;25.85;3.17;;;;;;;;;;4944168;28;20045;-61
2022/02/22 01:21:21;;;;;;;19.35;2.72;;;;;;;;;;4942091;28;20041;-62
2022/02/22 01:23:46;;;;;;;29.33;3.60;;;;;;;;;;4944689;28;20041;-63
2022/02/22 01:26:12;;;;;;;10.35;2.70;;;;;;;;;;4960914;28;20560;-62
2022/02/22 01:28:41;;;;;;;19.48;3.58;;;;;;;;;;4959571;28;20040;-63
2022/02/22 01:31:06;;;;;;;24.15;3.35;;;;;;;;;;4962845;28;20031;-62
2022/02/22 01:33:32;;;;;;;16.60;3.22;;;;;;;;;;4947961;28;20039;-63
2022/02/22 01:35:57;;;;;;;29.60;3.35;;;;;;;;;;4962278;28;21067;-64
2022/02/22 01:38:27;;;;;;;14.77;2.40;;;;;;;;;;4945390;28;20034;-62
2022/02/22 01:41:00;;;;;;;29.83;3.58;;;;;;;;;;4962951;28;20073;-64
2022/02/22 01:43:28;;;;;;;21.67;2.65;;;;;;;;;;4947592;28;20034;-64
2022/02/22 01:45:54;;;;;;;19.40;2.88;;;;;;;;;;4946223;28;20033;-64
2022/02/22 01:48:22;;;;;;;36.13;4.28;;;;;;;;;;4961143;28;20034;-63
2022/02/22 01:50:50;;;;;;;26.63;3.03;;;;;;;;;;4940908;28;20815;-65
2022/02/22 01:53:18;;;;;;;15.00;2.92;;;;;;;;;;4940661;28;20122;-63
2022/02/22 01:55:48;;;;;;;20.00;2.67;;;;;;;;;;4962545;28;20149;-62
2022/02/22 01:58:16;;;;;;;38.75;5.00;;;;;;;;;;4946467;28;20042;-63
2022/02/22 02:00:46;;;;;;;17.20;3.20;;;;;;;;;;4966575;28;20593;-64
2022/02/22 02:03:17;;;;;;;32.33;4.47;;;;;;;;;;4965375;28;20042;-63
2022/02/22 02:05:46;;;;;;;24.27;3.75;;;;;;;;;;4981732;28;20034;-64
2022/02/22 02:08:13;;;;;;;26.08;3.50;;;;;;;;;;4964397;28;20038;-59
2022/02/22 02:10:41;;;;;;;31.10;3.85;;;;;;;;;;4978950;28;20033;-62
2022/02/22 02:13:12;;;;;;;18.92;2.25;;;;;;;;;;4964761;28;20565;-63
2022/02/22 02:15:37;;;;;;;26.77;3.42;;;;;;;;;;4979501;28;21030;-60
2022/02/22 02:18:03;;;;;;;29.27;3.83;;;;;;;;;;4981097;28;20042;-62
2022/02/22 02:20:29;;;;;;;28.30;3.72;;;;;;;;;;4966803;28;20038;-65
2022/02/22 02:22:57;;;;;;;20.63;3.00;;;;;;;;;;4965345;28;20047;-63
2022/02/22 02:25:27;;;;;;;20.48;2.85;;;;;;;;;;4981610;28;20048;-62
2022/02/22 02:28:00;;;;;;;23.52;3.35;;;;;;;;;;4982443;28;20044;-64
2022/02/22 02:30:29;;;;;;;19.15;3.38;;;;;;;;;;4953848;28;20037;-65
2022/02/22 02:32:54;;;;;;;21.20;3.35;;;;;;;;;;4980732;28;20446;-64
2022/02/22 02:35:20;;;;;;;23.40;3.97;;;;;;;;;;4962589;28;20042;-63
2022/02/22 02:37:46;;;;;;;23.00;4.32;;;;;;;;;;4980038;28;20038;-64
2022/02/22 02:40:11;;;;;;;32.67;3.88;;;;;;;;;;4977498;28;20060;-63
2022/02/22 02:42:46;;;;;;;26.30;2.92;;;;;;;;;;4945527;28;20034;-62
2022/02/22 02:45:16;;;;;;;28.42;2.97;;;;;;;;;;4980209;28;20048;-64
2022/02/22 02:47:45;;;;;;;28.38;2.72;;;;;;;;;;4981281;28;21207;-64
2022/02/22 02:50:12;;;;;;;30.10;3.47;;;;;;;;;;4977544;28;20038;-63
2022/02/22 02:52:40;;;;;;;28.83;3.60;;;;;;;;;;4977649;28;20046;-64
2022/02/22 02:55:10;;;;;;;30.35;4.85;;;;;;;;;;4964757;28;20180;-61
2022/02/22 02:57:37;;;;;;;14.60;3.13;;;;;;;;;;4981338;28;20065;-62
2022/02/22 03:00:08;;;;;;;19.35;2.95;;;;;;;;;;4965378;28;20168;-62
2022/02/22 03:02:36;;;;;;;19.10;2.58;;;;;;;;;;4969539;28;20038;-64
2022/02/22 03:05:06;;;;;;;16.58;2.97;;;;;;;;;;4964566;28;20589;-62
2022/02/22 03:07:34;;;;;;;30.00;2.78;;;;;;;;;;4945302;28;20053;-62
2022/02/22 03:10:00;;;;;;;29.83;3.92;;;;;;;;;;4969453;28;20041;-63
2022/02/22 03:12:31;;;;;;;26.38;2.55;;;;;;;;;;4977814;28;20029;-62
2022/02/22 03:14:59;;;;;;;21.02;3.33;;;;;;;;;;4978766;28;20053;-64
2022/02/22 03:17:26;;;;;;;23.70;2.75;;;;;;;;;;4966975;28;20021;-61
2022/02/22 03:19:52;;;;;;;24.75;4.05;;;;;;;;;;4966550;28;20034;-63
2022/02/22 03:22:20;;;;;;;19.50;2.92;;;;;;;;;;4938671;28;20038;-63
2022/02/22 03:24:48;;;;;;;20.23;3.58;;;;;;;;;;4967429;28;20040;-62
2022/02/22 03:27:16;;;;;;;20.08;3.58;;;;;;;;;;4962602;28;20034;-62
2022/02/22 03:29:41;;;;;;;27.85;3.13;;;;;;;;;;4982227;28;20076;-64
2022/02/22 03:32:11;;;;;;;30.92;2.90;;;;;;;;;;4969961;28;20037;-64
2022/02/22 03:34:39;;;;;;;13.88;2.38;;;;;;;;;;4976672;28;20084;-60
2022/02/22 03:37:09;;;;;;;23.45;2.90;;;;;;;;;;4963058;28;20453;-64
2022/02/22 03:39:35;;;;;;;22.15;3.30;;;;;;;;;;4966644;28;20038;-64
2022/02/22 03:42:03;;;;;;;21.75;3.00;;;;;;;;;;4966021;28;20045;-64
2022/02/22 03:44:28;;;;;;;18.42;2.60;;;;;;;;;;4980637;28;20041;-63
2022/02/22 03:46:54;;;;;;;14.18;3.00;;;;;;;;;;4966078;28;20025;-64
2022/02/22 03:49:20;;;;;;;12.77;2.45;;;;;;;;;;4962210;28;20097;-63
2022/02/22 03:51:46;;;;;;;15.75;3.13;;;;;;;;;;4980536;28;20042;-64
2022/02/22 03:54:14;;;;;;;19.25;3.50;;;;;;;;;;4962174;28;20409;-63
2022/02/22 03:56:42;;;;;;;11.98;2.75;;;;;;;;;;4978101;28;20041;-64
2022/02/22 03:59:09;;;;;;;23.20;2.47;;;;;;;;;;4965060;28;20072;-63
2022/02/22 04:01:35;;;;;;;22.35;2.58;;;;;;;;;;4964224;28;20092;-63
2022/02/22 04:04:01;;;;;;;27.52;3.65;;;;;;;;;;4978200;28;20041;-62
2022/02/22 04:06:27;;;;;;;26.55;4.05;;;;;;;;;;4978148;28;20080;-63
2022/02/22 04:08:55;;;;;;;36.22;3.53;;;;;;;;;;4965925;28;20118;-63
2022/02/22 04:11:24;;;;;;;21.30;2.92;;;;;;;;;;4980569;28;20034;-63
2022/02/22 04:13:52;;;;;;;18.17;3.10;;;;;;;;;;4978302;28;20115;-61
2022/02/22 04:16:17;;;;;;;21.67;3.63;;;;;;;;;;4973297;28;20160;-65
2022/02/22 04:18:43;;;;;;;31.33;3.58;;;;;;;;;;4978336;28;20026;-64
2022/02/22 04:21:12;;;;;;;17.63;2.70;;;;;;;;;;4979520;28;20036;-64
2022/02/22 04:23:38;;;;;;;24.30;2.17;;;;;;;;;;4963074;28;20274;-63
2022/02/22 04:26:06;;;;;;;18.23;2.53;;;;;;;;;;4947007;28;20500;-63
2022/02/22 04:28:40;;;;;;;27.58;3.30;;;;;;;;;;4961545;28;20033;-63
2022/02/22 04:31:08;;;;;;;;;;;;;;;;;;4949763;28;20435;-63
2022/02/22 04:33:34;;;;;;;26.88;2.60;;;;;;;;;;4981331;28;19913;-64
2022/02/22 04:35:59;;;;;;;15.02;2.95;;;;;;;;;;4964190;28;20627;-64
2022/02/22 04:38:27;;;;;;;21.23;2.35;;;;;;;;;;4961312;28;20045;-62
2022/02/22 04:40:55;;;;;;;26.10;2.83;;;;;;;;;;4977841;28;20149;-63
2022/02/22 04:43:23;;;;;;;14.02;2.50;;;;;;;;;;4978017;28;20038;-64
2022/02/22 04:45:56;;;;;;;21.48;2.28;;;;;;;;;;4977456;28;22094;-63
2022/02/22 04:48:21;;;;;;;19.38;2.80;;;;;;;;;;4964113;28;21434;-64
2022/02/22 04:50:47;;;;;;;20.27;2.63;;;;;;;;;;4976952;28;20494;-61
2022/02/22 04:53:13;;;;;;;14.55;2.45;;;;;;;;;;4980624;28;20045;-62
2022/02/22 04:55:40;;;;;;;20.25;3.13;;;;;;;;;;4944608;28;20092;-63
2022/02/22 04:58:08;;;;;;;23.75;3.10;;;;;;;;;;4978834;28;20075;-63
2022/02/22 05:00:34;;;;;;;26.17;3.38;;;;;;;;;;4967262;28;20041;-64
2022/02/22 05:02:59;;;;;;;18.05;2.00;;;;;;;;;;4981387;28;20030;-64
2022/02/22 05:05:25;;;;;;;28.77;3.22;;;;;;;;;;4964033;28;20085;-63
2022/02/22 05:07:53;;;;;;;23.95;2.78;;;;;;;;;;4931284;28;22026;-63
2022/02/22 05:10:19;;;;;;;31.90;4.35;;;;;;;;;;4953711;28;20036;-65
2022/02/22 05:12:46;;;;;;;18.63;2.65;;;;;;;;;;4980273;28;21291;-62
2022/02/22 05:15:11;;;;;;;25.27;3.20;;;;;;;;;;4971676;28;20037;-65
2022/02/22 05:17:40;;;;;;;9.20;2.60;;;;;;;;;;4981509;28;20167;-64
2022/02/22 05:20:08;;;;;;;22.80;3.22;;;;;;;;;;4953717;28;20037;-63
2022/02/22 05:22:40;;;;;;;31.10;3.28;;;;;;;;;;4953609;28;20061;-63
2022/02/22 05:25:08;;;;;;;21.20;3.45;;;;;;;;;;4985331;28;20992;-62
2022/02/22 05:27:36;;;;;;;26.88;3.08;;;;;;;;;;4981627;28;20034;-63
2022/02/22 05:30:07;;;;;;;20.52;2.83;;;;;;;;;;4981567;28;20038;-64
2022/02/22 05:32:33;;;;;;;24.08;3.05;;;;;;;;;;4960783;28;20065;-65
2022/02/22 05:34:59;;;;;;;20.75;3.08;;;;;;;;;;4963894;28;20034;-64
2022/02/22 05:37:27;;;;;;;15.13;3.10;;;;;;;;;;4967615;28;20505;-63
2022/02/22 05:40:00;;;;;;;25.30;2.47;;;;;;;;;;4981571;28;20022;-63
2022/02/22 05:42:28;;;;;;;27.33;4.25;;;;;;;;;;4981679;28;20066;-64
2022/02/22 05:44:59;;;;;;;28.17;2.83;;;;;;;;;;4979758;28;20049;-63
2022/02/22 05:47:27;;;;;;;22.58;2.80;;;;;;;;;;4981716;28;20034;-62
2022/02/22 05:49:53;;;;;;;26.13;3.25;;;;;;;;;;4981356;28;20065;-63
2022/02/22 05:52:20;;;;;;;29.52;3.08;;;;;;;;;;4980573;28;20026;-63
2022/02/22 05:54:46;;;;;;;20.25;3.00;;;;;;;;;;4966103;28;20021;-64
2022/02/22 05:57:14;;;;;;;22.38;2.92;;;;;;;;;;4952009;28;20499;-64
2022/02/22 05:59:40;;;;;;;12.90;2.70;;;;;;;;;;4981335;28;20030;-62
2022/02/22 06:02:05;;;;;;;15.90;2.97;;;;;;;;;;4971165;28;20124;-63
2022/02/22 06:04:31;;;;;;;31.98;4.15;;;;;;;;;;4978804;28;20049;-64
2022/02/22 06:06:59;;;;;;;32.03;3.00;;;;;;;;;;4969403;28;20482;-62
2022/02/22 06:09:27;;;;;;;27.13;3.45;;;;;;;;;;4970012;28;20029;-64
2022/02/22 06:11:52;;;;;;;24.10;2.55;;;;;;;;;;4966500;28;20084;-64
2022/02/22 06:14:18;;;;;;;17.95;2.80;;;;;;;;;;4964643;28;20049;-61
2022/02/22 06:16:43;;;;;;;26.52;3.28;;;;;;;;;;4977524;28;20034;-63
2022/02/22 06:19:11;;;;;;;15.23;3.88;;;;;;;;;;4964040;28;20077;-64
2022/02/22 06:21:36;;;;;;;19.40;2.75;;;;;;;;;;4982264;28;20042;-62
2022/02/22 06:24:03;;;;;;;20.35;2.20;;;;;;;;;;4965236;28;20108;-63
2022/02/22 06:26:33;;;;;;;17.02;2.75;;;;;;;;;;4967154;28;20189;-64
2022/02/22 06:29:01;;;;;;;21.15;2.95;;;;;;;;;;4966785;28;20787;-64
2022/02/22 06:31:37;;;;;;;22.17;2.33;;;;;;;;;;4963256;28;20040;-64
2022/02/22 06:34:06;;;;;;;23.90;2.63;;;;;;;;;;4965576;28;20053;-63
2022/02/22 06:36:45;;;;;;;30.50;3.70;;;;;;;;;;4978127;28;20602;-64
2022/02/22 06:39:10;;;;;;;11.23;2.67;;;;;;;;;;4980542;28;20057;-64
2022/02/22 06:41:38;;;;;;;18.55;3.10;;;;;;;;;;4979885;28;21918;-64
2022/02/22 06:44:05;;;;;;;21.80;2.13;;;;;;;;;;4980772;28;20051;-64
2022/02/22 06:46:33;;;;;;;23.92;3.75;;;;;;;;;;4964087;28;20202;-64
2022/02/22 06:49:04;;;;;;;21.67;3.30;;;;;;;;;;4965006;28;20034;-64
2022/02/22 06:51:30;;;;;;;15.32;2.35;;;;;;;;;;4964897;28;20046;-65
2022/02/22 06:53:58;;;;;;;22.80;2.22;;;;;;;;;;4981739;28;20065;-64
2022/02/22 06:56:26;;;;;;;30.40;2.95;;;;;;;;;;4966085;28;20042;-63
2022/02/22 06:58:54;;;;;;;24.58;3.85;;;;;;;;;;4967270;28;20068;-64
2022/02/22 07:01:22;;;;;;;18.23;2.58;;;;;;;;;;4953281;28;20042;-63
2022/02/22 07:03:49;;;;;;;29.92;3.08;;;;;;;;;;4982358;28;20563;-65
2022/02/22 07:06:15;;;;;;;16.33;2.83;;;;;;;;;;4980232;28;20040;-63
2022/02/22 07:08:43;;;;;;;25.17;3.20;;;;;;;;;;4982295;28;20042;-64
2022/02/22 07:11:09;;;;;;;31.40;2.67;;;;;;;;;;4959573;28;20037;-64
2022/02/22 07:13:37;;;;;;;15.60;2.05;;;;;;;;;;4968169;28;20030;-65
2022/02/22 07:16:05;;;;;;;29.33;2.60;;;;;;;;;;4978304;28;20069;-64
2022/02/22 07:18:30;;;;;;;28.40;3.05;;;;;;;;;;4951975;28;20527;-64
2022/02/22 07:20:57;;;;;;;27.60;3.38;;;;;;;;;;4964649;28;20049;-65
2022/02/22 07:23:24;;;;;;;16.05;2.55;;;;;;;;;;4963813;28;20021;-66
2022/02/22 07:25:55;;;;;;;19.00;3.15;;;;;;;;;;4978946;28;20080;-65
2022/02/22 07:28:23;;;;;;;19.27;3.17;;;;;;;;;;4967441;28;20034;-65
2022/02/22 07:34:24;;;;;;;15.98;2.33;;;;;;;;;;4980283;28;20080;-63
2022/02/22 07:36:49;;;;;;;32.90;3.97;;;;;;;;;;4963809;28;20033;-64
2022/02/22 07:39:16;;;;;;;20.42;3.20;;;;;;;;;;4964588;28;20121;-64
2022/02/22 07:41:42;;;;;;;23.38;2.95;;;;;;;;;;4980623;28;20073;-64
2022/02/22 07:44:07;;;;;;;25.15;3.47;;;;;;;;;;4967235;28;20551;-64
2022/02/22 07:46:35;;;;;;;13.13;2.25;;;;;;;;;;4949892;28;20041;-64
2022/02/22 07:49:00;;;;;;;25.33;2.33;;;;;;;;;;4982306;28;20068;-66
2022/02/22 07:51:26;;;;;;;21.02;3.17;;;;;;;;;;4969293;28;20488;-64
2022/02/22 07:53:55;;;;;;;21.13;2.78;;;;;;;;;;4977713;28;20053;-65
2022/02/22 07:56:22;;;;;;;15.80;3.17;;;;;;;;;;4952766;28;20041;-64
2022/02/22 07:58:50;;;;;;;24.67;3.85;;;;;;;;;;4963317;28;20060;-63
2022/02/22 08:01:16;;;;;;;23.42;2.38;;;;;;;;;;4961571;28;20078;-63
2022/02/22 08:03:45;;;;;;;31.45;2.95;;;;;;;;;;4967424;28;20926;-63
2022/02/22 08:06:12;;;;;;;21.00;3.00;;;;;;;;;;4977916;28;20045;-64
2022/02/22 08:08:41;;;;;;;24.27;3.15;;;;;;;;;;4963093;28;20038;-63
2022/02/22 08:11:07;;;;;;;16.67;2.78;;;;;;;;;;4981106;28;20041;-64
2022/02/22 08:20:23;;;;;;;22.73;2.47;;;;;;;;;;4957141;28;20070;-64
2022/02/22 08:25:58;;;;;;;20.63;2.45;;;;;;;;;;4973688;28;20494;-64
2022/02/22 08:28:24;;;;;;;16.75;2.63;;;;;;;;;;4976424;28;20027;-64
2022/02/22 08:30:52;;;;;;;18.58;2.42;;;;;;;;;;4961698;28;20937;-66
2022/02/22 08:36:26;;;;;;;19.45;3.25;;;;;;;;;;4975311;28;20065;-64
2022/02/22 08:38:53;;;;;;;32.58;2.85;;;;;;;;;;4966477;28;20506;-63
2022/02/22 08:41:22;;;;;;;15.80;2.55;;;;;;;;;;4977608;28;20041;-66
2022/02/22 08:43:48;;;;;;;22.90;3.38;;;;;;;;;;4976567;28;20704;-65
2022/02/22 08:46:17;;;;;;;23.45;3.58;;;;;;;;;;4946550;28;20030;-64
2022/02/22 08:48:45;;;;;;;25.50;3.38;;;;;;;;;;4961887;28;20038;-64
2022/02/22 08:51:13;;;;;;;25.17;3.53;;;;;;;;;;4962746;28;20058;-66
2022/02/22 08:54:08;;;;;;;24.08;3.00;;;;;;;;;;4978286;28;20034;-66
2022/02/22 08:56:36;;;;;;;36.20;3.15;;;;;;;;;;4981850;28;20691;-63
2022/02/22 08:59:04;;;;;;;29.67;3.15;;;;;;;;;;4963956;28;20052;-65
2022/02/22 09:01:29;;;;;;;18.42;2.95;;;;;;;;;;4963496;28;20049;-65
2022/02/22 09:03:57;;;;;;;16.63;2.85;;;;;;;;;;4961629;28;20030;-65
2022/02/22 09:06:24;;;;;;;15.65;2.65;;;;;;;;;;4964546;28;20942;-64
2022/02/22 09:08:51;;;;;;;21.27;3.30;;;;;;;;;;4974356;28;20041;-64
2022/02/22 09:11:20;;;;;;;29.10;2.70;;;;;;;;;;4977208;28;20262;-64
2022/02/22 09:13:45;;;;;;;14.63;2.88;;;;;;;;;;4976802;28;20030;-65
2022/02/22 09:16:14;;;;;;;12.80;2.08;;;;;;;;;;4961908;28;20061;-65
2022/02/22 09:18:48;;;;;;;20.63;2.85;;;;;;;;;;4974577;28;20987;-63
2022/02/22 09:21:13;;;;;;;20.25;2.65;;;;;;;;;;4961573;28;20030;-63
2022/02/22 09:23:39;;;;;;;19.45;2.15;;;;;;;;;;4959819;28;20073;-63
2022/02/22 09:26:05;;;;;;;20.02;2.72;;;;;;;;;;4977007;28;20036;-65
2022/02/22 09:32:06;;;;;;;20.25;2.92;;;;;;;;;;4980709;28;20092;-64
2022/02/22 09:34:32;;;;;;;15.88;2.75;;;;;;;;;;4956623;28;20034;-65
2022/02/22 09:37:02;;;;;;;22.98;2.47;;;;;;;;;;4981229;28;20044;-65
2022/02/22 09:43:06;;;;;;;20.42;2.97;;;;;;;;;;4977102;28;20060;-65
2022/02/22 09:45:32;;;;;;;21.80;3.35;;;;;;;;;;4966438;28;20089;-64
2022/02/22 09:48:01;;;;;;;21.13;2.75;;;;;;;;;;4974039;28;21339;-65
2022/02/22 09:51:00;;;;;;;16.25;2.20;;;;;;;;;;4977900;28;20552;-64
2022/02/22 09:53:26;;;;;;;16.83;3.15;;;;;;;;;;4981142;28;20090;-65
2022/02/22 09:55:51;;;;;;;25.40;3.15;;;;;;;;;;4967174;28;20033;-64
2022/02/22 09:58:21;;;;;;;16.55;2.88;;;;;;;;;;4978759;28;20124;-64
2022/02/22 10:00:59;;;;;;;24.30;3.40;;;;;;;;;;4982494;28;20030;-64
2022/02/22 10:03:24;;;;;;;20.63;2.83;;;;;;;;;;4966588;28;20026;-65
2022/02/22 10:05:54;;;;;;;19.20;2.88;;;;;;;;;;4966410;28;20121;-65
2022/02/22 10:08:23;;;;;;;14.45;2.30;;;;;;;;;;4981791;28;20079;-65
2022/02/22 10:10:59;;;;;;;17.90;3.00;;;;;;;;;;4973417;28;20065;-65
2022/02/22 10:16:59;;;;;;;20.40;3.47;;;;;;;;;;4981094;28;20397;-64
2022/02/22 10:19:26;;;;;;;23.83;3.67;;;;;;;;;;4968856;28;20038;-64
2022/02/22 10:21:57;;;;;;;17.02;3.47;;;;;;;;;;4981451;28;20223;-64
2022/02/22 10:24:29;;;;;;;25.05;3.33;;;;;;;;;;4981890;28;20485;-64
2022/02/22 10:27:04;;;;;;;21.90;3.65;;;;;;;;;;4980327;28;20579;-63
2022/02/22 10:29:35;;;;;;;22.58;4.05;;;;;;;;;;4966162;28;20065;-63
2022/02/22 10:32:11;;;;;;;16.88;3.78;;;;;;;;;;4979028;28;20034;-63
2022/02/22 10:38:51;;;;;;;39.60;4.15;;;;;;;;;;4976799;28;20038;-64
2022/02/22 10:41:22;;;;;;;21.70;3.97;;;;;;;;;;4964147;28;20038;-64
2022/02/22 10:43:55;;;;;;;26.15;4.05;;;;;;;;;;4966040;28;20540;-64
2022/02/22 10:46:27;;;;;;;15.18;3.45;;;;;;;;;;4981123;28;20030;-64
2022/02/22 10:52:31;;;;;;;22.33;4.07;;;;;;;;;;4980890;28;20045;-63
2022/02/22 10:55:23;;;;;;;27.35;4.40;;;;;;;;;;4962281;28;20038;-62
2022/02/22 10:57:53;;;;;;;20.08;3.72;;;;;;;;;;4962217;28;20049;-64
2022/02/22 11:00:24;;;;;;;20.15;4.05;;;;;;;;;;4952842;28;20060;-62
2022/02/22 11:02:51;;;;;;;19.50;2.95;;;;;;;;;;4968655;28;20053;-64
2022/02/22 11:05:19;;;;;;;24.02;3.92;;;;;;;;;;4964021;28;20026;-64
2022/02/22 11:07:50;;;;;;;25.95;4.82;;;;;;;;;;4978860;28;20081;-64
2022/02/22 11:10:15;;;;;;;20.67;3.70;;;;;;;;;;4984972;28;20034;-64
2022/02/22 11:12:45;;;;;;;33.92;4.53;;;;;;;;;;4982032;28;20057;-63
2022/02/22 11:15:31;;;;;;;18.75;3.58;;;;;;;;;;4979007;28;20146;-62
2022/02/22 11:21:33;;;;;;;51.95;5.25;;;;;;;;;;4980716;28;20041;-63
2022/02/22 11:24:04;;;;;;;25.63;3.55;;;;;;;;;;4963243;28;20578;-63
2022/02/22 11:26:45;;;;;;;33.28;4.28;;;;;;;;;;4963311;28;20038;-62
2022/02/22 11:29:13;;;;;;;26.55;3.17;;;;;;;;;;4968466;28;20670;-63
2022/02/22 11:31:42;;;;;;;25.23;3.90;;;;;;;;;;4978785;28;20040;-62
2022/02/22 11:34:07;;;;;;;20.20;3.28;;;;;;;;;;4978307;28;20485;-62
2022/02/22 11:36:37;;;;;;;18.83;3.50;;;;;;;;;;4963412;28;20026;-64
2022/02/22 11:39:03;;;;;;;23.05;3.15;;;;;;;;;;4964907;28;20036;-63
2022/02/22 11:41:33;;;;;;;27.55;3.50;;;;;;;;;;4967528;28;20040;-62
2022/02/22 11:44:05;;;;;;;21.25;3.33;;;;;;;;;;4976071;28;20120;-63
2022/02/22 11:46:35;;;;;;;21.33;3.72;;;;;;;;;;4977750;28;20065;-61
2022/02/22 11:49:06;;;;;;;26.52;4.90;;;;;;;;;;4975407;28;20567;-64
2022/02/22 11:51:44;;;;;;;25.65;4.03;;;;;;;;;;4979658;28;20041;-65
2022/02/22 11:54:12;;;;;;;30.20;3.38;;;;;;;;;;4984023;28;21889;-63
2022/02/22 11:56:39;;;;;;;17.98;3.80;;;;;;;;;;4978866;28;20121;-63
2022/02/22 11:59:19;;;;;;;20.77;4.03;;;;;;;;;;4963361;28;20136;-64
2022/02/22 12:05:54;;;;;;;15.20;3.38;;;;;;;;;;4977949;28;20041;-63
2022/02/22 12:08:25;;;;;;;18.98;4.97;;;;;;;;;;4980452;28;20041;-63
2022/02/22 12:10:57;;;;;;;22.17;4.18;;;;;;;;;;4979295;28;20060;-64
2022/02/22 12:13:24;;;;;;;18.60;4.40;;;;;;;;;;4978818;28;20034;-63
2022/02/22 12:15:51;;;;;;;20.83;3.75;;;;;;;;;;4964112;28;20036;-61
2022/02/22 12:18:23;;;;;;;24.58;3.97;;;;;;;;;;4965820;28;20049;-63
2022/02/22 12:20:51;;;;;;;25.60;3.92;;;;;;;;;;4980275;28;20045;-63
2022/02/22 12:23:36;;;;;;;21.25;4.20;;;;;;;;;;4975381;28;20077;-63
2022/02/22 12:26:05;;;;;;;22.88;4.30;;;;;;;;;;4962959;28;20163;-61
2022/02/22 12:28:44;;;;;;;26.00;4.68;;;;;;;;;;4976796;28;20108;-59
2022/02/22 12:31:24;;;;;;;22.17;4.80;;;;;;;;;;4963852;28;20053;-62
2022/02/22 12:33:57;;;;;;;31.73;4.93;;;;;;;;;;4965151;28;20672;-63
2022/02/22 12:36:27;;;;;;;24.85;5.10;;;;;;;;;;4961646;28;20022;-63
2022/02/22 12:39:04;;;;;;;30.38;5.72;;;;;;;;;;4979766;28;20050;-63
2022/02/22 12:41:33;;;;;;;21.83;4.95;;;;;;;;;;4979094;28;20026;-61
2022/02/22 12:43:59;;;;;;;24.50;5.35;;;;;;;;;;4941872;28;20037;-62
2022/02/22 12:50:00;;;;;;;22.40;5.53;;;;;;;;;;4978910;28;20748;-63
2022/02/22 12:52:26;;;;;;;24.80;6.38;;;;;;;;;;4978030;28;20045;-64
2022/02/22 12:55:03;;;;;;;37.25;6.55;;;;;;;;;;4964495;28;20092;-62
2022/02/22 12:57:45;;;;;;;27.70;6.35;;;;;;;;;;4977870;28;20030;-63
2022/02/22 13:00:11;;;;;;;33.67;6.72;;;;;;;;;;4971474;28;20162;-63
2022/02/22 13:02:39;;;;;;;31.92;6.97;;;;;;;;;;4964118;28;20103;-63
2022/02/22 13:05:11;;;;;;;28.25;6.22;;;;;;;;;;4970808;28;20432;-62
2022/02/22 13:07:38;;;;;;;21.73;6.38;;;;;;;;;;4963655;28;20038;-60
2022/02/22 13:10:07;;;;;;;26.05;6.95;;;;;;;;;;4960917;28;20436;-62
2022/02/22 13:12:33;;;;;;;27.25;7.28;;;;;;;;;;4977000;28;20027;-63
2022/02/22 13:15:01;;;;;;;22.08;6.47;;;;;;;;;;4962434;28;20084;-62
2022/02/22 13:17:28;;;;;;;19.90;6.32;;;;;;;;;;4961056;28;20030;-63
2022/02/22 13:19:56;;;;;;;40.90;7.60;;;;;;;;;;4981502;28;20030;-60
2022/02/22 13:22:38;;;;;;;22.00;7.65;;;;;;;;;;4969201;28;20026;-62
2022/02/22 13:28:49;;;;;;;22.40;7.03;;;;;;;;;;4922514;28;20132;-61
2022/02/22 13:31:19;;;;;;;28.73;8.27;;;;;;;;;;4908055;29;20031;-60
2022/02/22 13:33:58;;;;;;;26.83;8.02;;;;;;;;;;4966354;28;20041;-62
2022/02/22 13:36:23;;;;;;;25.63;6.50;;;;;;;;;;4986264;28;20042;-62
2022/02/22 13:38:59;;;;;;;37.53;7.82;;;;;;;;;;4965614;28;20034;-63
2022/02/22 13:41:48;;;;;;;31.33;7.65;;;;;;;;;;4982538;28;20343;-61
2022/02/22 13:44:33;;;;;;;26.35;6.82;;;;;;;;;;4973882;28;20030;-62
2022/02/22 13:50:37;;;;;;;23.13;6.85;;;;;;;;;;4982299;28;20130;-62
2022/02/22 13:53:08;;;;;;;22.90;5.93;;;;;;;;;;4979911;28;20057;-62
2022/02/22 13:55:57;;;;;;;22.30;7.40;;;;;;;;;;4965787;28;20121;-58
2022/02/22 13:58:29;;;;;;;27.23;6.53;;;;;;;;;;4980881;28;20914;-62
2022/02/22 14:00:59;;;;;;;30.73;7.47;;;;;;;;;;4985895;28;20092;-62
2022/02/22 14:03:27;;;;;;;27.35;6.85;;;;;;;;;;4967600;28;20052;-61
2022/02/22 14:06:30;;;;;;;32.15;7.35;;;;;;;;;;4983478;28;20180;-61
2022/02/22 14:08:58;;;;;;;27.70;6.10;;;;;;;;;;4952055;28;20461;-62
2022/02/22 14:11:26;;;;;;;28.50;8.52;;;;;;;;;;4987291;28;20289;-62
2022/02/22 14:13:51;;;;;;;29.17;7.53;;;;;;;;;;4983277;28;20034;-60
2022/02/22 14:16:19;;;;;;;22.23;6.38;;;;;;;;;;4965882;28;20509;-60
2022/02/22 14:18:44;;;;;;;28.90;6.47;;;;;;;;;;4964686;28;20129;-61
2022/02/22 14:21:10;;;;;;;29.90;7.18;;;;;;;;;;4969751;28;20588;-58
2022/02/22 14:23:38;;;;;;;20.75;6.28;;;;;;;;;;4958202;28;20053;-60
2022/02/22 14:29:10;;;;;;;33.58;7.63;;;;;;;;;;4982375;28;20045;-61
2022/02/22 14:31:39;;;;;;;25.55;6.20;;;;;;;;;;4968387;28;20057;-59
2022/02/22 14:37:42;;;;;;;23.50;6.35;;;;;;;;;;4979629;28;20029;-60
2022/02/22 14:40:09;;;;;;;26.65;6.38;;;;;;;;;;4966014;28;20045;-59
2022/02/22 14:42:37;;;;;;;33.08;5.72;;;;;;;;;;4965232;28;20049;-63
2022/02/22 14:45:09;;;;;;;29.65;4.78;;;;;;;;;;4979282;28;20053;-61
2022/02/22 14:47:35;;;;;;;27.88;4.88;;;;;;;;;;4979688;28;20108;-61
2022/02/22 14:50:02;;;;;;;43.75;6.28;;;;;;;;;;4977529;28;20143;-61
2022/02/22 14:52:30;;;;;;;27.92;4.95;;;;;;;;;;4975461;28;20045;-63
2022/02/22 14:55:00;;;;;;;33.95;5.28;;;;;;;;;;4930631;28;20046;-62
2022/02/22 14:57:28;;;;;;;32.20;4.68;;;;;;;;;;4959421;28;20041;-62
2022/02/22 14:59:54;;;;;;;29.92;4.32;;;;;;;;;;4959752;28;20037;-61
2022/02/22 15:02:28;;;;;;;31.95;5.80;;;;;;;;;;4960760;28;20039;-60
2022/02/22 15:04:58;;;;;;;26.33;4.70;;;;;;;;;;4961798;28;20041;-60
2022/02/22 15:07:29;;;;;;;24.55;3.78;;;;;;;;;;4931402;28;20723;-60
2022/02/22 15:09:57;;;;;;;15.13;4.03;;;;;;;;;;4959208;28;20046;-62
2022/02/22 15:12:26;;;;;;;15.07;3.38;;;;;;;;;;4959777;28;20138;-61
2022/02/22 15:14:51;;;;;;;19.95;3.50;;;;;;;;;;4943639;28;20062;-61
2022/02/22 15:17:21;;;;;;;18.92;3.72;;;;;;;;;;4960133;28;20053;-60
2022/02/22 15:19:49;;;;;;;13.43;3.40;;;;;;;;;;4962476;28;20130;-61
2022/02/22 15:22:15;;;;;;;23.02;3.92;;;;;;;;;;4947698;28;20041;-62
2022/02/22 15:24:40;;;;;;;48.80;5.15;;;;;;;;;;4960602;28;20039;-62
2022/02/22 15:27:06;;;;;;;20.02;3.17;;;;;;;;;;4959922;28;20461;-63
2022/02/22 15:29:31;;;;;;;39.47;3.85;;;;;;;;;;4926332;28;20065;-62
2022/02/22 15:35:04;;;;;;;24.67;3.65;;;;;;;;;;4960281;28;20051;-60
2022/02/22 15:37:32;;;;;;;27.67;3.47;;;;;;;;;;4960022;28;20026;-62
2022/02/22 15:40:03;;;;;;;31.23;3.70;;;;;;;;;;4959889;28;20043;-62
2022/02/22 15:42:31;;;;;;;16.58;3.35;;;;;;;;;;4959367;28;20085;-62